Terminal Aerodrome Forecast
Issued by NWS

Home | Current Version | Previous Version | Graphics & Text | Print | Product List | Glossary On
Versions: 1 2 3 4 5 6 7 8 9 10 11 12 13 14 15 16 17 18 19 20
000
FTUS43 KICT 271726
TAFRSL
TAF
KRSL 271726Z 2718/2818 07018G27KT P6SM SCT150
     FM280100 02006KT P6SM SCT200
     FM281000 35006KT P6SM SCT200=

USA.gov is the U.S. government's official web portal to all federal, state and local government web resources and services.